VTK605 UMBB-UMII
Flight info
| Callsign | VTK605 |
|---|---|
| Flight time | 1h 31m |
| Altitude | 19000 |
| Route | DOMAN T52 MNS M863 RUHAL P26 KUTHU |
| Aircraft | C414/L-SBDFGRY/S |
Departure
| Time | 2026-04-27 10:33 |
|---|---|
| Airport | Brest International Airport (UMBB) |
Arrival
| Time | 2026-04-27 12:05 |
|---|---|
| Airport | Vitebsk Vostochny Airport (UMII) |
| Time | Latitude | Longitude | Altitude | Speed | Heading |
|---|---|---|---|---|---|
| 2026-04-27 10:23 | 52.11073 | 23.89921 | 465 ft | 0 kts | 296° |
| 2026-04-27 10:29 | 52.11080 | 23.89895 | 465 ft | 9 kts | 283° |
| 2026-04-27 10:29 | 52.11011 | 23.89811 | 465 ft | 15 kts | 204° |
| 2026-04-27 10:29 | 52.10917 | 23.89743 | 465 ft | 15 kts | 205° |
| 2026-04-27 10:30 | 52.10818 | 23.89704 | 465 ft | 18 kts | 152° |
| 2026-04-27 10:30 | 52.10748 | 23.89907 | 464 ft | 23 kts | 115° |
| 2026-04-27 10:30 | 52.10672 | 23.90182 | 465 ft | 28 kts | 114° |
| 2026-04-27 10:30 | 52.10594 | 23.90483 | 466 ft | 29 kts | 113° |
| 2026-04-27 10:31 | 52.10506 | 23.90780 | 464 ft | 30 kts | 114° |
| 2026-04-27 10:31 | 52.10420 | 23.91110 | 462 ft | 33 kts | 117° |
| 2026-04-27 10:31 | 52.10370 | 23.91345 | 463 ft | 14 kts | 360° |
| 2026-04-27 10:31 | 52.10392 | 23.91206 | 462 ft | 15 kts | 293° |
| 2026-04-27 10:32 | 52.10486 | 23.90869 | 464 ft | 55 kts | 295° |
| 2026-04-27 10:32 | 52.10694 | 23.90099 | 464 ft | 91 kts | 294° |
| 2026-04-27 10:32 | 52.10946 | 23.89079 | 619 ft | 101 kts | 291° |
| 2026-04-27 10:32 | 52.11244 | 23.87999 | 783 ft | 108 kts | 298° |
| 2026-04-27 10:33 | 52.11580 | 23.86887 | 976 ft | 110 kts | 296° |
| 2026-04-27 10:33 | 52.11921 | 23.85750 | 1158 ft | 116 kts | 302° |
| 2026-04-27 10:33 | 52.12644 | 23.85045 | 1371 ft | 135 kts | 349° |
| 2026-04-27 10:33 | 52.13564 | 23.85612 | 1639 ft | 157 kts | 37° |
| 2026-04-27 10:34 | 52.14015 | 23.87363 | 1787 ft | 180 kts | 81° |
| 2026-04-27 10:34 | 52.14093 | 23.89412 | 2067 ft | 181 kts | 81° |
| 2026-04-27 10:34 | 52.14217 | 23.91462 | 2385 ft | 181 kts | 79° |
| 2026-04-27 10:34 | 52.14384 | 23.93474 | 2729 ft | 179 kts | 77° |
| 2026-04-27 10:35 | 52.14558 | 23.95499 | 3022 ft | 182 kts | 78° |
| 2026-04-27 10:35 | 52.14732 | 23.97557 | 3269 ft | 184 kts | 78° |
| 2026-04-27 10:35 | 52.14914 | 23.99616 | 3579 ft | 184 kts | 77° |
| 2026-04-27 10:35 | 52.15299 | 24.01548 | 3857 ft | 177 kts | 52° |
| 2026-04-27 10:36 | 52.16036 | 24.03105 | 4142 ft | 174 kts | 44° |
| 2026-04-27 10:36 | 52.16787 | 24.04651 | 4434 ft | 175 kts | 44° |
| 2026-04-27 10:36 | 52.17543 | 24.06204 | 4723 ft | 175 kts | 44° |
| 2026-04-27 10:36 | 52.18295 | 24.07742 | 5011 ft | 177 kts | 44° |
| 2026-04-27 10:37 | 52.19060 | 24.09301 | 5311 ft | 175 kts | 44° |
| 2026-04-27 10:37 | 52.19832 | 24.10880 | 5574 ft | 177 kts | 44° |
| 2026-04-27 10:37 | 52.20600 | 24.12447 | 5860 ft | 177 kts | 44° |
| 2026-04-27 10:37 | 52.21358 | 24.14001 | 6158 ft | 177 kts | 43° |
| 2026-04-27 10:38 | 52.22129 | 24.15578 | 6439 ft | 178 kts | 43° |
| 2026-04-27 10:38 | 52.22909 | 24.17181 | 6727 ft | 178 kts | 43° |
| 2026-04-27 10:38 | 52.23681 | 24.18763 | 7012 ft | 178 kts | 43° |
| 2026-04-27 10:38 | 52.24440 | 24.20319 | 7285 ft | 178 kts | 43° |
| 2026-04-27 10:39 | 52.25213 | 24.21909 | 7568 ft | 178 kts | 43° |
| 2026-04-27 10:39 | 52.25983 | 24.23495 | 7840 ft | 178 kts | 43° |
| 2026-04-27 10:39 | 52.26758 | 24.25084 | 8085 ft | 180 kts | 43° |
| 2026-04-27 10:39 | 52.27536 | 24.26684 | 8374 ft | 180 kts | 42° |
| 2026-04-27 10:40 | 52.28315 | 24.28284 | 8646 ft | 180 kts | 42° |
| 2026-04-27 10:40 | 52.29095 | 24.29892 | 8921 ft | 180 kts | 42° |
| 2026-04-27 10:40 | 52.29876 | 24.31501 | 9197 ft | 181 kts | 42° |
| 2026-04-27 10:40 | 52.30658 | 24.33111 | 9494 ft | 181 kts | 42° |
| 2026-04-27 10:41 | 52.31441 | 24.34731 | 9761 ft | 182 kts | 42° |
| 2026-04-27 10:41 | 52.32227 | 24.36356 | 10033 ft | 182 kts | 41° |
| 2026-04-27 10:41 | 52.33013 | 24.37981 | 10268 ft | 183 kts | 41° |
| 2026-04-27 10:41 | 52.33799 | 24.39610 | 10491 ft | 182 kts | 41° |
| 2026-04-27 10:42 | 52.34592 | 24.41237 | 10682 ft | 185 kts | 41° |
| 2026-04-27 10:42 | 52.35393 | 24.42884 | 10965 ft | 185 kts | 41° |
| 2026-04-27 10:42 | 52.36183 | 24.44544 | 11215 ft | 185 kts | 41° |
| 2026-04-27 10:42 | 52.36983 | 24.46205 | 11467 ft | 184 kts | 40° |
| 2026-04-27 10:43 | 52.37777 | 24.47850 | 11643 ft | 185 kts | 39° |
| 2026-04-27 10:43 | 52.38582 | 24.49510 | 11846 ft | 188 kts | 39° |
| 2026-04-27 10:43 | 52.39386 | 24.51188 | 12086 ft | 188 kts | 39° |
| 2026-04-27 10:43 | 52.40191 | 24.52866 | 12317 ft | 187 kts | 39° |
| 2026-04-27 10:44 | 52.41003 | 24.54550 | 12550 ft | 188 kts | 39° |
| 2026-04-27 10:44 | 52.41817 | 24.56239 | 12799 ft | 190 kts | 38° |
| 2026-04-27 10:44 | 52.42627 | 24.57926 | 13034 ft | 191 kts | 38° |
| 2026-04-27 10:44 | 52.43449 | 24.59642 | 13263 ft | 191 kts | 38° |
| 2026-04-27 10:45 | 52.44271 | 24.61359 | 13496 ft | 191 kts | 37° |
| 2026-04-27 10:45 | 52.45098 | 24.63072 | 13673 ft | 193 kts | 37° |
| 2026-04-27 10:45 | 52.45927 | 24.64803 | 13904 ft | 193 kts | 37° |
| 2026-04-27 10:45 | 52.46751 | 24.66540 | 14107 ft | 193 kts | 37° |
| 2026-04-27 10:46 | 52.47580 | 24.68272 | 14301 ft | 193 kts | 37° |
| 2026-04-27 10:46 | 52.48412 | 24.70011 | 14491 ft | 194 kts | 37° |
| 2026-04-27 10:46 | 52.49245 | 24.71756 | 14690 ft | 194 kts | 37° |
| 2026-04-27 10:46 | 52.50080 | 24.73506 | 14889 ft | 195 kts | 36° |
| 2026-04-27 10:47 | 52.50919 | 24.75262 | 15079 ft | 195 kts | 36° |
| 2026-04-27 10:47 | 52.51758 | 24.77024 | 15270 ft | 196 kts | 36° |
| 2026-04-27 10:47 | 52.52596 | 24.78787 | 15452 ft | 197 kts | 36° |
| 2026-04-27 10:47 | 52.53440 | 24.80559 | 15632 ft | 197 kts | 36° |
| 2026-04-27 10:48 | 52.54286 | 24.82336 | 15818 ft | 198 kts | 36° |
| 2026-04-27 10:48 | 52.55133 | 24.84122 | 16016 ft | 199 kts | 37° |
| 2026-04-27 10:48 | 52.55945 | 24.85990 | 16182 ft | 200 kts | 38° |
| 2026-04-27 10:48 | 52.56779 | 24.87825 | 16367 ft | 201 kts | 37° |
| 2026-04-27 10:49 | 52.57611 | 24.89671 | 16553 ft | 201 kts | 38° |
| 2026-04-27 10:49 | 52.58440 | 24.91531 | 16736 ft | 202 kts | 38° |
| 2026-04-27 10:49 | 52.59262 | 24.93379 | 16919 ft | 203 kts | 38° |
| 2026-04-27 10:49 | 52.60106 | 24.95280 | 17153 ft | 203 kts | 37° |
| 2026-04-27 10:50 | 52.60926 | 24.97125 | 17326 ft | 203 kts | 37° |
| 2026-04-27 10:50 | 52.61765 | 24.99010 | 17487 ft | 204 kts | 37° |
| 2026-04-27 10:50 | 52.62601 | 25.00893 | 17667 ft | 205 kts | 37° |
| 2026-04-27 10:50 | 52.63441 | 25.02789 | 17847 ft | 205 kts | 37° |
| 2026-04-27 10:51 | 52.64283 | 25.04689 | 18015 ft | 206 kts | 37° |
| 2026-04-27 10:51 | 52.65129 | 25.06598 | 18189 ft | 207 kts | 37° |
| 2026-04-27 10:51 | 52.65978 | 25.08515 | 18356 ft | 207 kts | 37° |
| 2026-04-27 10:51 | 52.66829 | 25.10441 | 18506 ft | 208 kts | 37° |
| 2026-04-27 10:52 | 52.67679 | 25.12367 | 18655 ft | 208 kts | 37° |
| 2026-04-27 10:52 | 52.68531 | 25.14296 | 18796 ft | 209 kts | 37° |
| 2026-04-27 10:52 | 52.69388 | 25.16238 | 18942 ft | 209 kts | 37° |
| 2026-04-27 10:52 | 52.70244 | 25.18181 | 19074 ft | 210 kts | 37° |
| 2026-04-27 10:53 | 52.71121 | 25.20156 | 19081 ft | 217 kts | 37° |
| 2026-04-27 10:53 | 52.72937 | 25.24290 | 19093 ft | 226 kts | 38° |
| 2026-04-27 10:53 | 52.73863 | 25.26403 | 19083 ft | 228 kts | 38° |
| 2026-04-27 10:54 | 52.74799 | 25.28535 | 19084 ft | 230 kts | 38° |
| 2026-04-27 10:54 | 52.75741 | 25.30684 | 19084 ft | 232 kts | 38° |
| 2026-04-27 10:54 | 52.76691 | 25.32852 | 19083 ft | 234 kts | 39° |
| 2026-04-27 10:54 | 52.77647 | 25.35037 | 19100 ft | 235 kts | 38° |
| 2026-04-27 10:55 | 52.78608 | 25.37231 | 19071 ft | 236 kts | 38° |
| 2026-04-27 10:55 | 52.79563 | 25.39420 | 19071 ft | 235 kts | 38° |
| 2026-04-27 10:55 | 52.80522 | 25.41615 | 19072 ft | 235 kts | 38° |
| 2026-04-27 10:55 | 52.81476 | 25.43801 | 19068 ft | 235 kts | 38° |
| 2026-04-27 10:56 | 52.82429 | 25.45989 | 19066 ft | 234 kts | 38° |
| 2026-04-27 10:56 | 52.83382 | 25.48173 | 19066 ft | 234 kts | 38° |
| 2026-04-27 10:56 | 52.84334 | 25.50358 | 19073 ft | 235 kts | 38° |
| 2026-04-27 10:56 | 52.85276 | 25.52524 | 19065 ft | 234 kts | 38° |
| 2026-04-27 10:57 | 52.86229 | 25.54717 | 19077 ft | 235 kts | 38° |
| 2026-04-27 10:57 | 52.87180 | 25.56908 | 19067 ft | 235 kts | 38° |
| 2026-04-27 10:57 | 52.88134 | 25.59107 | 19059 ft | 235 kts | 38° |
| 2026-04-27 10:57 | 52.89087 | 25.61305 | 19061 ft | 235 kts | 38° |
| 2026-04-27 10:58 | 52.89731 | 25.62793 | 19057 ft | 235 kts | 39° |
| 2026-04-27 10:58 | 52.90684 | 25.64995 | 19058 ft | 235 kts | 39° |
| 2026-04-27 10:58 | 52.91635 | 25.67193 | 19057 ft | 235 kts | 39° |
| 2026-04-27 10:58 | 52.92586 | 25.69396 | 19058 ft | 235 kts | 39° |
| 2026-04-27 10:59 | 52.93541 | 25.71607 | 19061 ft | 235 kts | 39° |
| 2026-04-27 10:59 | 52.94493 | 25.73812 | 19063 ft | 235 kts | 39° |
| 2026-04-27 10:59 | 52.95445 | 25.76022 | 19058 ft | 236 kts | 38° |
| 2026-04-27 11:00 | 52.97333 | 25.80414 | 19052 ft | 231 kts | 38° |
| 2026-04-27 11:00 | 52.98265 | 25.82579 | 19051 ft | 230 kts | 38° |
| 2026-04-27 11:00 | 52.99190 | 25.84733 | 19046 ft | 229 kts | 38° |
| 2026-04-27 11:00 | 53.00112 | 25.86880 | 19045 ft | 228 kts | 38° |
| 2026-04-27 11:01 | 53.01032 | 25.89022 | 19046 ft | 227 kts | 38° |
| 2026-04-27 11:01 | 53.01948 | 25.91159 | 19036 ft | 227 kts | 38° |
| 2026-04-27 11:01 | 53.02865 | 25.93303 | 19035 ft | 227 kts | 38° |
| 2026-04-27 11:01 | 53.03769 | 25.95415 | 19034 ft | 227 kts | 38° |
| 2026-04-27 11:02 | 53.04684 | 25.97556 | 19035 ft | 227 kts | 38° |
| 2026-04-27 11:02 | 53.05601 | 25.99704 | 19034 ft | 227 kts | 38° |
| 2026-04-27 11:02 | 53.06518 | 26.01853 | 19034 ft | 227 kts | 38° |
| 2026-04-27 11:02 | 53.07443 | 26.04024 | 19033 ft | 227 kts | 38° |
| 2026-04-27 11:03 | 53.08344 | 26.06138 | 19036 ft | 227 kts | 38° |
| 2026-04-27 11:03 | 53.09255 | 26.08279 | 19025 ft | 227 kts | 38° |
| 2026-04-27 11:03 | 53.10168 | 26.10426 | 19028 ft | 227 kts | 38° |
| 2026-04-27 11:03 | 53.11083 | 26.12577 | 19029 ft | 227 kts | 38° |
| 2026-04-27 11:04 | 53.11994 | 26.14726 | 19025 ft | 227 kts | 38° |
| 2026-04-27 11:04 | 53.12906 | 26.16874 | 19029 ft | 227 kts | 38° |
| 2026-04-27 11:04 | 53.13816 | 26.19024 | 19026 ft | 227 kts | 38° |
| 2026-04-27 11:04 | 53.14730 | 26.21180 | 19026 ft | 228 kts | 38° |
| 2026-04-27 11:05 | 53.15642 | 26.23337 | 19031 ft | 228 kts | 38° |
| 2026-04-27 11:05 | 53.16553 | 26.25492 | 19015 ft | 228 kts | 38° |
| 2026-04-27 11:05 | 53.17464 | 26.27651 | 19015 ft | 227 kts | 38° |
| 2026-04-27 11:05 | 53.18375 | 26.29807 | 19016 ft | 228 kts | 38° |
| 2026-04-27 11:06 | 53.19289 | 26.31975 | 19020 ft | 228 kts | 38° |
| 2026-04-27 11:06 | 53.20199 | 26.34137 | 19023 ft | 228 kts | 38° |
| 2026-04-27 11:06 | 53.21110 | 26.36302 | 19020 ft | 228 kts | 38° |
| 2026-04-27 11:06 | 53.22021 | 26.38466 | 19020 ft | 228 kts | 38° |
| 2026-04-27 11:07 | 53.22930 | 26.40631 | 19020 ft | 228 kts | 38° |
| 2026-04-27 11:07 | 53.23840 | 26.42797 | 19018 ft | 228 kts | 38° |
| 2026-04-27 11:07 | 53.24749 | 26.44964 | 19018 ft | 228 kts | 38° |
| 2026-04-27 11:07 | 53.25657 | 26.47132 | 19020 ft | 228 kts | 38° |
| 2026-04-27 11:08 | 53.26553 | 26.49272 | 19018 ft | 227 kts | 38° |
| 2026-04-27 11:08 | 53.27458 | 26.51436 | 19016 ft | 227 kts | 38° |
| 2026-04-27 11:08 | 53.28363 | 26.53608 | 19033 ft | 228 kts | 38° |
| 2026-04-27 11:08 | 53.29266 | 26.55790 | 19033 ft | 229 kts | 38° |
| 2026-04-27 11:09 | 53.30175 | 26.57985 | 19016 ft | 231 kts | 37° |
| 2026-04-27 11:09 | 53.31091 | 26.60202 | 19014 ft | 230 kts | 38° |
| 2026-04-27 11:09 | 53.31996 | 26.62398 | 19014 ft | 229 kts | 37° |
| 2026-04-27 11:09 | 53.32899 | 26.64583 | 19014 ft | 228 kts | 37° |
| 2026-04-27 11:10 | 53.33802 | 26.66774 | 19010 ft | 228 kts | 37° |
| 2026-04-27 11:10 | 53.34702 | 26.68955 | 19008 ft | 227 kts | 37° |
| 2026-04-27 11:10 | 53.35596 | 26.71124 | 19008 ft | 227 kts | 37° |
| 2026-04-27 11:10 | 53.36492 | 26.73301 | 19008 ft | 226 kts | 37° |
| 2026-04-27 11:11 | 53.37382 | 26.75466 | 19005 ft | 226 kts | 37° |
| 2026-04-27 11:11 | 53.38276 | 26.77641 | 19005 ft | 226 kts | 37° |
| 2026-04-27 11:11 | 53.39166 | 26.79809 | 19005 ft | 226 kts | 37° |
| 2026-04-27 11:11 | 53.40057 | 26.81980 | 19005 ft | 226 kts | 37° |
| 2026-04-27 11:12 | 53.40949 | 26.84159 | 19002 ft | 226 kts | 37° |
| 2026-04-27 11:12 | 53.41840 | 26.86335 | 19002 ft | 227 kts | 37° |
| 2026-04-27 11:12 | 53.42732 | 26.88515 | 19002 ft | 227 kts | 37° |
| 2026-04-27 11:12 | 53.43625 | 26.90700 | 19003 ft | 227 kts | 37° |
| 2026-04-27 11:13 | 53.44506 | 26.92856 | 18992 ft | 227 kts | 38° |
| 2026-04-27 11:13 | 53.45399 | 26.95044 | 18992 ft | 227 kts | 38° |
| 2026-04-27 11:13 | 53.46291 | 26.97230 | 18989 ft | 227 kts | 37° |
| 2026-04-27 11:13 | 53.47188 | 26.99414 | 18989 ft | 227 kts | 37° |
| 2026-04-27 11:14 | 53.48088 | 27.01596 | 18994 ft | 228 kts | 37° |
| 2026-04-27 11:14 | 53.48985 | 27.03792 | 18995 ft | 228 kts | 37° |
| 2026-04-27 11:14 | 53.49879 | 27.05982 | 18994 ft | 227 kts | 37° |
| 2026-04-27 11:14 | 53.50772 | 27.08165 | 18986 ft | 226 kts | 37° |
| 2026-04-27 11:15 | 53.51662 | 27.10341 | 18985 ft | 226 kts | 37° |
| 2026-04-27 11:15 | 53.52550 | 27.12518 | 18984 ft | 225 kts | 37° |
| 2026-04-27 11:15 | 53.53436 | 27.14688 | 18979 ft | 225 kts | 37° |
| 2026-04-27 11:15 | 53.54326 | 27.16868 | 18977 ft | 225 kts | 37° |
| 2026-04-27 11:16 | 53.55212 | 27.19048 | 18976 ft | 225 kts | 37° |
| 2026-04-27 11:16 | 53.56097 | 27.21224 | 18976 ft | 225 kts | 37° |
| 2026-04-27 11:16 | 53.56982 | 27.23402 | 18979 ft | 225 kts | 37° |
| 2026-04-27 11:16 | 53.57866 | 27.25576 | 18971 ft | 225 kts | 37° |
| 2026-04-27 11:17 | 53.58740 | 27.27729 | 18970 ft | 225 kts | 37° |
| 2026-04-27 11:17 | 53.59636 | 27.29941 | 18970 ft | 225 kts | 37° |
| 2026-04-27 11:17 | 53.60516 | 27.32118 | 18964 ft | 225 kts | 37° |
| 2026-04-27 11:17 | 53.61386 | 27.34264 | 18962 ft | 224 kts | 37° |
| 2026-04-27 11:18 | 53.62266 | 27.36438 | 18961 ft | 225 kts | 37° |
| 2026-04-27 11:18 | 53.63148 | 27.38624 | 18964 ft | 225 kts | 37° |
| 2026-04-27 11:18 | 53.64029 | 27.40808 | 18958 ft | 225 kts | 37° |
| 2026-04-27 11:18 | 53.64912 | 27.42992 | 18982 ft | 227 kts | 37° |
| 2026-04-27 11:19 | 53.65799 | 27.45192 | 18961 ft | 227 kts | 37° |
| 2026-04-27 11:19 | 53.66681 | 27.47391 | 18960 ft | 226 kts | 37° |
| 2026-04-27 11:19 | 53.67564 | 27.49588 | 18961 ft | 225 kts | 37° |
| 2026-04-27 11:19 | 53.68445 | 27.51776 | 18961 ft | 225 kts | 37° |
| 2026-04-27 11:20 | 53.69321 | 27.53957 | 18956 ft | 225 kts | 37° |
| 2026-04-27 11:20 | 53.70202 | 27.56151 | 18955 ft | 225 kts | 37° |
| 2026-04-27 11:20 | 53.71081 | 27.58343 | 18976 ft | 226 kts | 38° |
| 2026-04-27 11:20 | 53.71962 | 27.60543 | 18946 ft | 227 kts | 38° |
| 2026-04-27 11:21 | 53.72833 | 27.62722 | 18947 ft | 226 kts | 38° |
| 2026-04-27 11:21 | 53.73711 | 27.64921 | 18942 ft | 226 kts | 38° |
| 2026-04-27 11:21 | 53.74591 | 27.67123 | 18940 ft | 226 kts | 38° |
| 2026-04-27 11:21 | 53.75467 | 27.69319 | 18939 ft | 225 kts | 38° |
| 2026-04-27 11:22 | 53.76342 | 27.71512 | 18935 ft | 225 kts | 38° |
| 2026-04-27 11:22 | 53.77213 | 27.73699 | 18934 ft | 225 kts | 38° |
| 2026-04-27 11:22 | 53.78089 | 27.75895 | 18932 ft | 225 kts | 38° |
| 2026-04-27 11:22 | 53.78963 | 27.78093 | 18928 ft | 225 kts | 38° |
| 2026-04-27 11:23 | 53.79834 | 27.80288 | 18927 ft | 225 kts | 38° |
| 2026-04-27 11:23 | 53.80703 | 27.82476 | 18926 ft | 224 kts | 38° |
| 2026-04-27 11:23 | 53.81573 | 27.84668 | 18928 ft | 224 kts | 38° |
| 2026-04-27 11:23 | 53.82446 | 27.86863 | 18927 ft | 226 kts | 40° |
| 2026-04-27 11:24 | 53.83318 | 27.89073 | 18928 ft | 225 kts | 40° |
| 2026-04-27 11:24 | 53.84187 | 27.91274 | 18929 ft | 225 kts | 40° |
| 2026-04-27 11:24 | 53.85058 | 27.93475 | 18928 ft | 225 kts | 40° |
| 2026-04-27 11:24 | 53.85929 | 27.95681 | 18928 ft | 225 kts | 40° |
| 2026-04-27 11:25 | 53.86800 | 27.97888 | 18928 ft | 225 kts | 40° |
| 2026-04-27 11:25 | 53.87671 | 28.00096 | 18929 ft | 226 kts | 40° |
| 2026-04-27 11:25 | 53.88509 | 28.02362 | 18926 ft | 234 kts | 49° |
| 2026-04-27 11:25 | 53.89088 | 28.05004 | 18928 ft | 240 kts | 56° |
| 2026-04-27 11:26 | 53.89654 | 28.07664 | 18930 ft | 239 kts | 54° |
| 2026-04-27 11:26 | 53.90233 | 28.10314 | 18928 ft | 240 kts | 54° |
| 2026-04-27 11:26 | 53.90803 | 28.12937 | 18933 ft | 240 kts | 54° |
| 2026-04-27 11:26 | 53.91384 | 28.15633 | 18930 ft | 241 kts | 55° |
| 2026-04-27 11:27 | 53.91959 | 28.18305 | 18919 ft | 241 kts | 55° |
| 2026-04-27 11:27 | 53.92535 | 28.20978 | 18918 ft | 241 kts | 55° |
| 2026-04-27 11:27 | 53.93101 | 28.23613 | 18918 ft | 241 kts | 55° |
| 2026-04-27 11:27 | 53.93681 | 28.26314 | 18918 ft | 241 kts | 55° |
| 2026-04-27 11:28 | 53.94248 | 28.28953 | 18922 ft | 241 kts | 55° |
| 2026-04-27 11:28 | 53.94820 | 28.31622 | 18921 ft | 241 kts | 55° |
| 2026-04-27 11:28 | 53.95391 | 28.34294 | 18922 ft | 240 kts | 55° |
| 2026-04-27 11:28 | 53.95961 | 28.36960 | 18922 ft | 241 kts | 55° |
| 2026-04-27 11:29 | 53.96531 | 28.39631 | 18944 ft | 241 kts | 58° |
| 2026-04-27 11:29 | 53.97102 | 28.42312 | 18913 ft | 241 kts | 58° |
| 2026-04-27 11:29 | 53.97670 | 28.44987 | 18914 ft | 240 kts | 57° |
| 2026-04-27 11:29 | 53.98237 | 28.47652 | 18914 ft | 239 kts | 58° |
| 2026-04-27 11:30 | 53.98804 | 28.50319 | 18906 ft | 240 kts | 58° |
| 2026-04-27 11:30 | 53.99371 | 28.52996 | 18907 ft | 240 kts | 58° |
| 2026-04-27 11:30 | 53.99935 | 28.55663 | 18907 ft | 240 kts | 58° |
| 2026-04-27 11:30 | 54.00501 | 28.58335 | 18906 ft | 240 kts | 58° |
| 2026-04-27 11:31 | 54.01065 | 28.61007 | 18906 ft | 240 kts | 58° |
| 2026-04-27 11:31 | 54.01628 | 28.63681 | 18898 ft | 240 kts | 58° |
| 2026-04-27 11:31 | 54.02191 | 28.66350 | 18897 ft | 240 kts | 58° |
| 2026-04-27 11:31 | 54.02753 | 28.69019 | 18898 ft | 240 kts | 58° |
| 2026-04-27 11:32 | 54.03315 | 28.71694 | 18895 ft | 240 kts | 58° |
| 2026-04-27 11:32 | 54.03873 | 28.74361 | 18894 ft | 240 kts | 58° |
| 2026-04-27 11:32 | 54.04433 | 28.77033 | 18895 ft | 240 kts | 58° |
| 2026-04-27 11:32 | 54.04993 | 28.79709 | 18898 ft | 240 kts | 58° |
| 2026-04-27 11:33 | 54.05553 | 28.82387 | 18897 ft | 240 kts | 58° |
| 2026-04-27 11:33 | 54.06111 | 28.85062 | 18897 ft | 240 kts | 58° |
| 2026-04-27 11:33 | 54.06669 | 28.87740 | 18884 ft | 240 kts | 58° |
| 2026-04-27 11:33 | 54.07225 | 28.90413 | 18884 ft | 240 kts | 58° |
| 2026-04-27 11:34 | 54.07777 | 28.93060 | 18884 ft | 240 kts | 58° |
| 2026-04-27 11:34 | 54.08337 | 28.95730 | 18884 ft | 240 kts | 58° |
| 2026-04-27 11:34 | 54.08897 | 28.98405 | 18884 ft | 240 kts | 58° |
| 2026-04-27 11:34 | 54.09456 | 29.01084 | 18889 ft | 240 kts | 62° |
| 2026-04-27 11:35 | 54.10012 | 29.03756 | 18887 ft | 239 kts | 62° |
| 2026-04-27 11:35 | 54.10567 | 29.06423 | 18887 ft | 238 kts | 62° |
| 2026-04-27 11:35 | 54.11120 | 29.09080 | 18887 ft | 238 kts | 62° |
| 2026-04-27 11:35 | 54.11671 | 29.11733 | 18889 ft | 237 kts | 62° |
| 2026-04-27 11:36 | 54.12219 | 29.14381 | 18878 ft | 237 kts | 62° |
| 2026-04-27 11:36 | 54.12789 | 29.17013 | 18874 ft | 233 kts | 56° |
| 2026-04-27 11:36 | 54.13677 | 29.19232 | 18873 ft | 222 kts | 38° |
| 2026-04-27 11:36 | 54.14848 | 29.20841 | 18869 ft | 212 kts | 22° |
| 2026-04-27 11:37 | 54.16148 | 29.21971 | 18867 ft | 210 kts | 19° |
| 2026-04-27 11:37 | 54.17449 | 29.23106 | 18867 ft | 210 kts | 19° |
| 2026-04-27 11:37 | 54.18748 | 29.24240 | 18868 ft | 209 kts | 19° |
| 2026-04-27 11:37 | 54.20045 | 29.25364 | 18855 ft | 209 kts | 19° |
| 2026-04-27 11:38 | 54.20906 | 29.26109 | 18854 ft | 209 kts | 19° |
| 2026-04-27 11:38 | 54.22207 | 29.27239 | 18854 ft | 210 kts | 19° |
| 2026-04-27 11:38 | 54.23506 | 29.28369 | 18854 ft | 210 kts | 19° |
| 2026-04-27 11:38 | 54.25250 | 29.29887 | 18856 ft | 210 kts | 19° |
| 2026-04-27 11:39 | 54.26115 | 29.30641 | 18858 ft | 210 kts | 19° |
| 2026-04-27 11:39 | 54.27418 | 29.31773 | 18858 ft | 211 kts | 19° |
| 2026-04-27 11:39 | 54.28724 | 29.32912 | 18859 ft | 211 kts | 19° |
| 2026-04-27 11:39 | 54.30035 | 29.34057 | 18853 ft | 211 kts | 21° |
| 2026-04-27 11:40 | 54.31344 | 29.35201 | 18854 ft | 211 kts | 21° |
| 2026-04-27 11:40 | 54.32656 | 29.36347 | 18853 ft | 211 kts | 21° |
| 2026-04-27 11:40 | 54.33965 | 29.37492 | 18856 ft | 211 kts | 21° |
| 2026-04-27 11:40 | 54.35274 | 29.38638 | 18857 ft | 211 kts | 21° |
| 2026-04-27 11:41 | 54.36587 | 29.39789 | 18857 ft | 211 kts | 21° |
| 2026-04-27 11:41 | 54.37895 | 29.40936 | 18858 ft | 211 kts | 21° |
| 2026-04-27 11:41 | 54.39210 | 29.42089 | 18849 ft | 213 kts | 21° |
| 2026-04-27 11:41 | 54.40534 | 29.43253 | 18846 ft | 215 kts | 21° |
| 2026-04-27 11:42 | 54.41843 | 29.44405 | 18845 ft | 214 kts | 21° |
| 2026-04-27 11:42 | 54.43164 | 29.45567 | 18846 ft | 213 kts | 21° |
| 2026-04-27 11:42 | 54.44483 | 29.46728 | 18845 ft | 212 kts | 21° |
| 2026-04-27 11:42 | 54.45799 | 29.47887 | 18851 ft | 212 kts | 21° |
| 2026-04-27 11:43 | 54.47112 | 29.49044 | 18843 ft | 212 kts | 21° |
| 2026-04-27 11:43 | 54.48428 | 29.50205 | 18838 ft | 212 kts | 21° |
| 2026-04-27 11:43 | 54.49739 | 29.51364 | 18833 ft | 212 kts | 21° |
| 2026-04-27 11:43 | 54.51051 | 29.52522 | 18832 ft | 212 kts | 21° |
| 2026-04-27 11:44 | 54.52367 | 29.53681 | 18829 ft | 212 kts | 21° |
| 2026-04-27 11:44 | 54.53684 | 29.54850 | 18841 ft | 213 kts | 20° |
| 2026-04-27 11:44 | 54.54981 | 29.56001 | 18841 ft | 212 kts | 21° |
| 2026-04-27 11:44 | 54.56305 | 29.57172 | 18840 ft | 211 kts | 21° |
| 2026-04-27 11:45 | 54.57614 | 29.58333 | 18825 ft | 212 kts | 21° |
| 2026-04-27 11:45 | 54.58922 | 29.59494 | 18824 ft | 212 kts | 21° |
| 2026-04-27 11:45 | 54.60230 | 29.60655 | 18826 ft | 211 kts | 20° |
| 2026-04-27 11:45 | 54.61536 | 29.61815 | 18825 ft | 211 kts | 20° |
| 2026-04-27 11:46 | 54.62823 | 29.62959 | 18826 ft | 211 kts | 21° |
| 2026-04-27 11:46 | 54.64125 | 29.64120 | 18828 ft | 211 kts | 20° |
| 2026-04-27 11:46 | 54.65428 | 29.65280 | 18828 ft | 211 kts | 21° |
| 2026-04-27 11:46 | 54.66748 | 29.66455 | 18817 ft | 211 kts | 21° |
| 2026-04-27 11:47 | 54.68035 | 29.67602 | 18815 ft | 211 kts | 21° |
| 2026-04-27 11:47 | 54.69349 | 29.68776 | 18813 ft | 212 kts | 21° |
| 2026-04-27 11:47 | 54.70662 | 29.69948 | 18816 ft | 212 kts | 20° |
| 2026-04-27 11:47 | 54.71967 | 29.71126 | 18816 ft | 212 kts | 22° |
| 2026-04-27 11:48 | 54.73150 | 29.72720 | 18818 ft | 218 kts | 37° |
| 2026-04-27 11:48 | 54.74262 | 29.74503 | 18818 ft | 218 kts | 35° |
| 2026-04-27 11:48 | 54.75387 | 29.76251 | 18812 ft | 218 kts | 34° |
| 2026-04-27 11:48 | 54.76535 | 29.78050 | 18425 ft | 221 kts | 35° |
| 2026-04-27 11:49 | 54.77656 | 29.79834 | 17992 ft | 217 kts | 35° |
| 2026-04-27 11:49 | 54.78768 | 29.81594 | 17503 ft | 214 kts | 35° |
| 2026-04-27 11:49 | 54.79865 | 29.83326 | 17030 ft | 212 kts | 34° |
| 2026-04-27 11:49 | 54.80956 | 29.85050 | 16560 ft | 211 kts | 34° |
| 2026-04-27 11:50 | 54.82036 | 29.86760 | 16097 ft | 210 kts | 34° |
| 2026-04-27 11:50 | 54.83109 | 29.88460 | 15640 ft | 208 kts | 34° |
| 2026-04-27 11:50 | 54.84174 | 29.90148 | 15186 ft | 207 kts | 34° |
| 2026-04-27 11:50 | 54.85231 | 29.91825 | 14743 ft | 205 kts | 34° |
| 2026-04-27 11:51 | 54.86278 | 29.93488 | 14311 ft | 203 kts | 34° |
| 2026-04-27 11:51 | 54.87317 | 29.95139 | 13879 ft | 202 kts | 34° |
| 2026-04-27 11:51 | 54.89361 | 29.98392 | 12957 ft | 198 kts | 34° |
| 2026-04-27 11:52 | 54.90371 | 30.00000 | 12476 ft | 196 kts | 34° |
| 2026-04-27 11:52 | 54.91374 | 30.01599 | 12010 ft | 195 kts | 33° |
| 2026-04-27 11:52 | 54.92372 | 30.03187 | 11547 ft | 194 kts | 33° |
| 2026-04-27 11:52 | 54.93362 | 30.04767 | 11101 ft | 193 kts | 33° |
| 2026-04-27 11:53 | 54.94338 | 30.06325 | 10657 ft | 193 kts | 33° |
| 2026-04-27 11:53 | 54.95325 | 30.07903 | 10234 ft | 193 kts | 33° |
| 2026-04-27 11:53 | 54.96310 | 30.09478 | 9849 ft | 190 kts | 33° |
| 2026-04-27 11:53 | 54.97276 | 30.11027 | 9449 ft | 188 kts | 33° |
| 2026-04-27 11:54 | 54.98234 | 30.12558 | 9033 ft | 186 kts | 32° |
| 2026-04-27 11:54 | 54.99185 | 30.14082 | 8619 ft | 186 kts | 33° |
| 2026-04-27 11:54 | 55.00133 | 30.15605 | 8207 ft | 185 kts | 33° |
| 2026-04-27 11:54 | 55.01082 | 30.17126 | 7799 ft | 185 kts | 33° |
| 2026-04-27 11:55 | 55.02032 | 30.18644 | 7404 ft | 186 kts | 33° |
| 2026-04-27 11:55 | 55.02991 | 30.20186 | 7014 ft | 187 kts | 33° |
| 2026-04-27 11:55 | 55.03934 | 30.21716 | 6725 ft | 184 kts | 33° |
| 2026-04-27 11:55 | 55.04874 | 30.23221 | 6445 ft | 183 kts | 33° |
| 2026-04-27 11:56 | 55.05816 | 30.24731 | 6159 ft | 184 kts | 33° |
| 2026-04-27 11:56 | 55.06755 | 30.26245 | 5860 ft | 184 kts | 33° |
| 2026-04-27 11:56 | 55.07617 | 30.27925 | 5563 ft | 188 kts | 44° |
| 2026-04-27 11:56 | 55.08395 | 30.29777 | 5272 ft | 188 kts | 45° |
| 2026-04-27 11:57 | 55.09184 | 30.31617 | 4981 ft | 190 kts | 43° |
| 2026-04-27 11:57 | 55.09990 | 30.33453 | 4684 ft | 192 kts | 44° |
| 2026-04-27 11:57 | 55.10826 | 30.35349 | 4206 ft | 200 kts | 44° |
| 2026-04-27 11:57 | 55.11673 | 30.37288 | 3728 ft | 202 kts | 44° |
| 2026-04-27 11:58 | 55.12530 | 30.39244 | 3259 ft | 202 kts | 43° |
| 2026-04-27 11:58 | 55.13367 | 30.41165 | 2786 ft | 195 kts | 43° |
| 2026-04-27 11:58 | 55.14169 | 30.43011 | 2478 ft | 182 kts | 43° |
| 2026-04-27 11:58 | 55.14900 | 30.44665 | 2464 ft | 167 kts | 49° |
| 2026-04-27 11:59 | 55.15311 | 30.46685 | 2481 ft | 181 kts | 65° |
| 2026-04-27 11:59 | 55.15660 | 30.48818 | 2486 ft | 184 kts | 65° |
| 2026-04-27 11:59 | 55.16005 | 30.50967 | 2501 ft | 179 kts | 65° |
| 2026-04-27 11:59 | 55.16307 | 30.52965 | 2471 ft | 162 kts | 65° |
| 2026-04-27 12:00 | 55.16683 | 30.54682 | 2470 ft | 138 kts | 35° |
| 2026-04-27 12:00 | 55.17426 | 30.55164 | 2477 ft | 106 kts | 335° |
| 2026-04-27 12:00 | 55.18111 | 30.54663 | 2476 ft | 108 kts | 326° |
| 2026-04-27 12:00 | 55.18677 | 30.53821 | 2457 ft | 107 kts | 312° |
| 2026-04-27 12:01 | 55.19010 | 30.52668 | 2478 ft | 110 kts | 290° |
| 2026-04-27 12:01 | 55.18996 | 30.51285 | 2484 ft | 121 kts | 266° |
| 2026-04-27 12:01 | 55.18516 | 30.49973 | 2484 ft | 142 kts | 233° |
| 2026-04-27 12:01 | 55.17579 | 30.49200 | 2484 ft | 153 kts | 212° |
| 2026-04-27 12:02 | 55.16758 | 30.48267 | 2482 ft | 130 kts | 244° |
| 2026-04-27 12:02 | 55.16329 | 30.46970 | 2486 ft | 120 kts | 259° |
| 2026-04-27 12:02 | 55.15901 | 30.45671 | 2313 ft | 127 kts | 252° |
| 2026-04-27 12:02 | 55.15467 | 30.44316 | 1907 ft | 126 kts | 251° |
| 2026-04-27 12:03 | 55.15057 | 30.43005 | 1455 ft | 118 kts | 256° |
| 2026-04-27 12:03 | 55.14706 | 30.41783 | 1336 ft | 110 kts | 252° |
| 2026-04-27 12:03 | 55.14328 | 30.40642 | 1182 ft | 103 kts | 252° |
| 2026-04-27 12:03 | 55.14013 | 30.39545 | 1047 ft | 98 kts | 252° |
| 2026-04-27 12:04 | 55.13698 | 30.38490 | 935 ft | 95 kts | 245° |
| 2026-04-27 12:04 | 55.13347 | 30.37519 | 809 ft | 92 kts | 251° |
| 2026-04-27 12:04 | 55.13091 | 30.36515 | 705 ft | 89 kts | 249° |
| 2026-04-27 12:04 | 55.12820 | 30.35630 | 689 ft | 76 kts | 256° |
| 2026-04-27 12:05 | 55.12637 | 30.34969 | 690 ft | 42 kts | 238° |
| 2026-04-27 12:05 | 55.12560 | 30.34686 | 688 ft | 19 kts | 227° |
| 2026-04-27 12:05 | 55.12571 | 30.34787 | 690 ft | 16 kts | 55° |
| 2026-04-27 12:05 | 55.12639 | 30.34997 | 690 ft | 23 kts | 61° |
| 2026-04-27 12:06 | 55.12725 | 30.35277 | 687 ft | 29 kts | 67° |
| 2026-04-27 12:06 | 55.12825 | 30.35611 | 690 ft | 30 kts | 64° |
| 2026-04-27 12:06 | 55.12892 | 30.35823 | 688 ft | 16 kts | 45° |
| 2026-04-27 12:06 | 55.12984 | 30.35797 | 689 ft | 13 kts | 329° |
| 2026-04-27 12:07 | 55.12988 | 30.35671 | 689 ft | 11 kts | 245° |
| 2026-04-27 12:07 | 55.12957 | 30.35558 | 687 ft | 9 kts | 272° |
| 2026-04-27 12:07 | 55.12986 | 30.35490 | 689 ft | 4 kts | 342° |
| 2026-04-27 12:07 | 55.13002 | 30.35475 | 689 ft | 0 kts | 330° |